Flight Track Log - Related Links

Times and Time Zones

All times are in EDT time to prevent confusion due to time zone crossing. See the CSH9417 flight status page for this flight to view local times or setup timezone preferences in your user account.

Time Position Orientation Groundspeed Altitude Reporting Facility
EDT Latitude Longitude Course Direction KTS MPH feet Rate Location/Type
Mon 06:30:00 AM 31.5620 121.0809 329° Northwest  Level Estimated
Mon 06:31:00 AM 31.6227 121.0381 329° Northwest  Level Estimated
Mon 06:32:00 AM 31.6833 120.9953 329° Northwest  Level Estimated
Mon 06:33:00 AM 31.7439 120.9525 329° Northwest  Level Estimated
Mon 06:34:00 AM 31.8045 120.9095 329° Northwest  Level Estimated
Mon 06:35:00 AM 31.8651 120.8665 329° Northwest  Level Estimated
Mon 06:36:00 AM 31.9256 120.8235 329° Northwest  Level Estimated
Mon 06:37:00 AM 31.9862 120.7804 329° Northwest  Level Estimated
Mon 06:38:00 AM 32.0467 120.7373 329° Northwest  Level Estimated
Mon 06:39:00 AM 32.1073 120.6940 329° Northwest  Level Estimated
Mon 06:40:00 AM 32.1678 120.6508 329° Northwest  Level Estimated
Mon 06:41:00 AM 32.2283 120.6075 329° Northwest  Level Estimated
Mon 06:42:00 AM 32.2888 120.5641 329° Northwest  Level Estimated
Mon 06:43:00 AM 32.3492 120.5206 329° Northwest  Level Estimated
Mon 06:44:00 AM 32.4097 120.4771 329° Northwest  Level Estimated
Mon 06:45:00 AM 32.4701 120.4336 329° Northwest  Level Estimated
Mon 06:46:00 AM 32.5305 120.3899 329° Northwest  Level Estimated
Mon 06:47:00 AM 32.5910 120.3463 329° Northwest  Level Estimated
Mon 06:48:00 AM 32.6513 120.3025 329° Northwest  Level Estimated
Mon 06:49:00 AM 32.7117 120.2587 329° Northwest  Level Estimated
Mon 06:50:00 AM 32.7721 120.2149 329° Northwest  Level Estimated
Mon 06:51:00 AM 32.8324 120.1710 329° Northwest  Level Estimated
Mon 06:52:00 AM 32.8927 120.1270 329° Northwest  Level Estimated
Mon 06:53:00 AM 32.9531 120.0830 329° Northwest  Level Estimated
Mon 06:54:00 AM 33.0134 120.0389 328° Northwest  Level Estimated
Mon 06:55:00 AM 33.0737 119.9947 328° Northwest  Level Estimated
Mon 06:56:00 AM 33.1339 119.9505 328° Northwest  Level Estimated
Mon 06:57:00 AM 33.1942 119.9062 328° Northwest  Level Estimated
Mon 06:58:00 AM 33.2544 119.8619 328° Northwest  Level Estimated
Mon 06:59:00 AM 33.3146 119.8175 328° Northwest  Level Estimated
Mon 07:00:00 AM 33.3748 119.7730 328° Northwest  Level Estimated
Mon 07:01:00 AM 33.4350 119.7285 328° Northwest  Level Estimated
Mon 07:02:00 AM 33.4952 119.6839 328° Northwest  Level Estimated
Mon 07:03:00 AM 33.5554 119.6393 328° Northwest  Level Estimated
Mon 07:04:00 AM 33.6155 119.5946 328° Northwest  Level Estimated
Mon 07:05:00 AM 33.6756 119.5498 328° Northwest  Level Estimated
Mon 07:06:00 AM 33.7357 119.5050 328° Northwest  Level Estimated
Mon 07:07:00 AM 33.7958 119.4601 328° Northwest  Level Estimated
Mon 07:08:00 AM 33.8559 119.4151 328° Northwest  Level Estimated
Mon 07:09:00 AM 33.9139 119.3717 328° Northwest  Level Estimated
Mon 07:10:00 AM 33.9719 119.3281 328° Northwest  Level Estimated
Mon 07:11:00 AM 34.0298 119.2846 328° Northwest  Level Estimated
Mon 07:12:00 AM 34.0878 119.2409 328° Northwest  Level Estimated
Mon 07:13:00 AM 34.1457 119.1972 328° Northwest  Level Estimated
Mon 07:14:00 AM 34.2036 119.1534 328° Northwest  Level Estimated
Mon 07:15:00 AM 34.2615 119.1096 328° Northwest  Level Estimated
Mon 07:16:00 AM 34.3194 119.0657 328° Northwest  Level Estimated
Mon 07:17:00 AM 34.3773 119.0218 328° Northwest  Level Estimated
Mon 07:18:00 AM 34.4351 118.9778 328° Northwest  Level Estimated
Mon 07:19:00 AM 34.4929 118.9337 328° Northwest  Level Estimated
Mon 07:20:00 AM 34.5508 118.8896 328° Northwest  Level Estimated
Mon 07:21:00 AM 34.5717 118.8736 328° Northwest  Level Estimated
Mon 07:22:00 AM 34.5717 118.8736 North  Level Estimated
Mon 07:23:00 AM 34.5717 118.8736 North  Level Estimated
Mon 07:24:00 AM 34.5717 118.8736 North  Level Estimated
Mon 07:25:00 AM 34.5717 118.8736 North  Level Estimated
Mon 07:26:00 AM 34.5717 118.8736 North  Level Estimated
Mon 07:27:00 AM 34.5717 118.8736 North  Level Estimated
Mon 07:28:00 AM 34.5717 118.8736 North  Level Estimated
Mon 07:29:00 AM 34.5717 118.8736 North  Level Estimated

Login

Don't have an account? Register now (free) for customized features, flight alerts, and more!